Time;durP1;ratioP1;P1;durP2;ratioP2;P2;SDS_P1;SDS_P2;PMS_P1;PMS_P2;Temp;Humidity;BMP_temperature;BMP_pressure;BME280_temperature;BME280_humidity;BME280_pressure;Samples;Min_cycle;Max_cycle;Signal;HPM_P1;HPM_P2
2023/01/24 00:01:58;;;;;;;8.67;7.10;;;6.20;96.60;;;;;;6166630;23;20445;-86
2023/01/24 00:04:27;;;;;;;8.07;6.67;;;6.20;96.20;;;;;;6189747;23;20389;-87
2023/01/24 00:07:00;;;;;;;8.87;6.87;;;6.10;96.40;;;;;;6191214;23;20480;-86
2023/01/24 00:09:29;;;;;;;7.57;6.57;;;6.10;96.50;;;;;;6191932;23;20517;-87
2023/01/24 00:12:02;;;;;;;9.03;7.00;;;6.30;96.40;;;;;;6190341;23;20410;-86
2023/01/24 00:14:34;;;;;;;8.93;7.27;;;6.10;96.10;;;;;;6190688;23;20438;-85
2023/01/24 00:17:02;;;;;;;9.70;7.63;;;6.10;96.40;;;;;;6189573;23;20406;-86
2023/01/24 00:19:29;;;;;;;8.90;7.13;;;6.30;96.40;;;;;;6189641;23;20477;-88
2023/01/24 00:21:56;;;;;;;8.07;7.27;;;6.30;96.20;;;;;;6185639;23;20425;-86
2023/01/24 00:24:28;;;;;;;8.53;7.63;;;6.30;96.10;;;;;;6196807;23;20426;-87
2023/01/24 00:33:11;;;;;;;7.47;6.73;;;6.20;96.30;;;;;;6163018;23;20419;-87
2023/01/24 00:35:42;;;;;;;8.70;6.80;;;6.10;96.40;;;;;;6162837;23;20470;-86
2023/01/24 00:38:11;;;;;;;8.40;6.60;;;6.30;96.10;;;;;;6160854;23;20430;-86
2023/01/24 00:40:39;;;;;;;8.53;6.47;;;6.00;96.10;;;;;;6153669;23;21178;-84
2023/01/24 00:43:13;;;;;;;7.10;6.23;;;6.10;96.60;;;;;;6151811;23;20407;-87
2023/01/24 00:45:46;;;;;;;6.43;5.70;;;6.20;96.50;;;;;;6164998;23;20414;-86
2023/01/24 00:48:14;;;;;;;7.40;6.20;;;6.20;95.70;;;;;;6158755;23;20415;-85
2023/01/24 00:50:41;;;;;;;6.70;6.03;;;6.20;95.70;;;;;;6163586;23;20522;-86
2023/01/24 00:53:10;;;;;;;8.23;6.27;;;6.10;95.80;;;;;;6170962;23;20410;-86
2023/01/24 00:55:45;;;;;;;6.50;5.77;;;5.80;96.00;;;;;;6172829;23;20436;-84
2023/01/24 00:58:12;;;;;;;8.70;7.80;;;5.90;96.30;;;;;;6170235;23;20410;-87
2023/01/24 01:00:44;;;;;;;6.40;5.80;;;5.90;96.30;;;;;;6169787;23;20414;-86
2023/01/24 01:03:16;;;;;;;7.30;6.60;;;5.90;96.50;;;;;;6166664;23;20413;-87
2023/01/24 01:05:46;;;;;;;8.07;7.27;;;5.90;96.70;;;;;;6176075;23;20426;-87
2023/01/24 01:08:13;;;;;;;7.00;6.30;;;5.90;96.50;;;;;;6168322;23;20502;-86
2023/01/24 01:10:41;;;;;;;7.67;6.50;;;5.90;96.60;;;;;;6168592;23;20551;-87
2023/01/24 01:13:13;;;;;;;7.10;6.30;;;5.80;96.50;;;;;;6168684;23;20411;-87
2023/01/24 01:15:40;;;;;;;8.40;7.23;;;5.70;96.60;;;;;;6157488;23;20446;-85
2023/01/24 01:18:10;;;;;;;7.17;6.10;;;6.00;97.00;;;;;;6156372;23;20469;-86
2023/01/24 01:20:41;;;;;;;6.93;6.17;;;6.10;96.50;;;;;;6156913;23;20470;-85
2023/01/24 01:23:11;;;;;;;8.00;7.30;;;6.20;96.00;;;;;;6154191;23;20418;-87
2023/01/24 01:25:38;;;;;;;8.27;6.23;;;6.10;95.80;;;;;;6156057;23;20489;-87
2023/01/24 01:28:06;;;;;;;7.47;6.50;;;6.20;95.90;;;;;;6158232;23;20418;-86
2023/01/24 01:30:39;;;;;;;7.47;6.70;;;6.20;95.80;;;;;;6158935;23;20432;-87
2023/01/24 01:33:06;;;;;;;8.73;7.57;;;6.10;96.00;;;;;;6156470;23;21195;-87
2023/01/24 01:35:36;;;;;;;9.17;7.70;;;6.00;96.20;;;;;;6157205;23;20811;-88
2023/01/24 01:38:03;;;;;;;7.73;6.93;;;6.00;96.40;;;;;;6156044;23;20817;-87
2023/01/24 01:40:30;;;;;;;8.47;7.57;;;5.90;96.50;;;;;;6156617;23;20559;-86
2023/01/24 01:43:00;;;;;;;8.83;7.77;;;6.20;96.40;;;;;;6159412;23;20489;-86
2023/01/24 01:45:43;;;;;;;6.30;5.10;;;6.10;96.20;;;;;;6159123;23;20529;-86
2023/01/24 01:48:33;;;;;;;9.93;7.03;;;6.00;96.20;;;;;;6162910;23;21008;-86
2023/01/24 01:51:19;;;;;;;8.53;7.50;;;6.10;96.20;;;;;;6161490;23;20442;-87
2023/01/24 01:54:04;;;;;;;8.57;7.10;;;6.10;96.10;;;;;;6160840;23;20406;-85
2023/01/24 01:56:40;;;;;;;9.20;7.53;;;5.90;96.20;;;;;;6160965;23;20522;-87
2023/01/24 01:59:14;;;;;;;8.33;7.23;;;5.80;96.30;;;;;;6164005;23;20458;-85
2023/01/24 02:01:42;;;;;;;10.50;8.43;;;6.00;96.40;;;;;;6164734;23;20489;-86
2023/01/24 02:04:26;;;;;;;8.87;7.37;;;6.10;96.20;;;;;;6162197;23;20415;-87
2023/01/24 02:07:30;;;;;;;7.57;6.33;;;6.10;96.20;;;;;;6155168;23;20438;-85
2023/01/24 02:10:02;;;;;;;7.37;6.60;;;5.90;96.10;;;;;;6112568;23;20473;-85
2023/01/24 02:12:43;;;;;;;8.77;7.60;;;5.90;96.20;;;;;;6158441;23;20425;-88
2023/01/24 02:18:05;;;;;;;7.67;6.77;;;6.10;95.80;;;;;;6158971;23;20411;-86
2023/01/24 02:20:45;;;;;;;7.00;6.30;;;6.00;95.90;;;;;;6157823;23;20419;-85
2023/01/24 02:23:48;;;;;;;7.97;6.80;;;5.90;96.30;;;;;;6156982;23;20407;-85
2023/01/24 02:26:21;;;;;;;8.80;6.73;;;5.90;95.80;;;;;;6151958;23;20411;-86
2023/01/24 02:28:56;;;;;;;9.03;6.10;;;5.80;96.00;;;;;;6152322;23;20492;-86
2023/01/24 02:31:24;;;;;;;6.50;5.83;;;5.80;95.90;;;;;;6150506;23;21062;-87
2023/01/24 02:33:54;;;;;;;8.77;6.77;;;5.90;95.90;;;;;;6152964;23;20887;-86
2023/01/24 02:36:34;;;;;;;6.97;5.83;;;5.80;95.80;;;;;;6153178;23;20446;-86
2023/01/24 02:39:07;;;;;;;7.70;6.90;;;5.80;95.90;;;;;;6153113;23;20430;-86
2023/01/24 02:42:00;;;;;;;6.43;5.80;;;5.70;95.90;;;;;;6151539;23;20414;-87
2023/01/24 02:44:53;;;;;;;6.37;5.77;;;5.80;95.90;;;;;;6143162;23;20422;-86
2023/01/24 02:47:20;;;;;;;8.03;6.00;;;5.90;96.00;;;;;;6151277;23;20409;-85
2023/01/24 02:49:48;;;;;;;9.17;7.87;;;5.80;96.00;;;;;;6156751;23;20781;-87
2023/01/24 02:55:00;;;;;;;8.07;6.57;;;5.40;96.60;;;;;;6152345;23;20395;-84
2023/01/24 03:00:14;;;;;;;7.70;6.30;;;5.50;97.00;;;;;;6151853;23;20498;-85
2023/01/24 03:02:44;;;;;;;9.20;6.63;;;5.40;97.00;;;;;;6148407;23;20419;-85
2023/01/24 03:05:11;;;;;;;7.60;6.20;;;5.60;97.10;;;;;;6153549;23;20423;-86
2023/01/24 03:07:45;;;;;;;7.93;7.13;;;5.80;96.80;;;;;;6149711;23;20419;-86
2023/01/24 03:10:15;;;;;;;8.10;6.70;;;5.90;96.00;;;;;;6150889;23;20435;-86
2023/01/24 03:34:53;;;;;;;8.70;6.90;;;5.50;95.90;;;;;;6151368;23;20414;-84
2023/01/24 03:39:53;;;;;;;7.70;6.37;;;5.50;96.10;;;;;;6148219;23;20446;-87
2023/01/24 03:40:14;;;;;;;6.80;5.70;;;5.40;95.90;;;;;;6152904;23;20461;-85
2023/01/24 03:42:50;;;;;;;6.23;5.63;;;5.50;96.00;;;;;;6148506;23;20419;-86
2023/01/24 03:45:29;;;;;;;9.10;6.67;;;5.30;95.90;;;;;;6147911;23;20418;-85
2023/01/24 03:47:58;;;;;;;6.20;5.47;;;5.30;96.20;;;;;;6151433;23;20422;-87
2023/01/24 03:53:25;;;;;;;6.30;5.70;;;5.30;96.40;;;;;;6150280;23;20728;-85
2023/01/24 03:55:59;;;;;;;6.07;5.30;;;5.40;96.30;;;;;;6149902;23;20449;-86
2023/01/24 03:58:28;;;;;;;6.10;5.30;;;5.30;96.30;;;;;;6147978;23;20768;-85
2023/01/24 04:00:58;;;;;;;6.40;5.80;;;5.40;96.40;;;;;;6151162;23;20417;-87
2023/01/24 04:03:26;;;;;;;7.40;5.80;;;5.40;96.20;;;;;;6147455;23;20411;-86
2023/01/24 04:05:56;;;;;;;6.13;5.10;;;5.40;96.30;;;;;;6148779;23;20485;-87
2023/01/24 04:08:23;;;;;;;7.80;6.50;;;5.40;96.40;;;;;;6152248;23;20474;-86
2023/01/24 04:10:55;;;;;;;6.40;5.23;;;5.30;96.20;;;;;;6151118;23;20422;-86
2023/01/24 04:13:22;;;;;;;6.70;5.70;;;5.40;96.30;;;;;;6148288;23;20418;-87
2023/01/24 04:15:49;;;;;;;6.60;5.80;;;5.40;96.30;;;;;;6151015;23;20504;-88
2023/01/24 04:18:19;;;;;;;6.17;5.57;;;5.40;96.40;;;;;;6148944;23;20407;-85
2023/01/24 04:20:46;;;;;;;7.97;6.53;;;5.40;96.50;;;;;;6151889;23;20426;-87
2023/01/24 04:23:13;;;;;;;8.70;6.10;;;5.30;96.70;;;;;;6152860;23;20482;-86
2023/01/24 04:25:40;;;;;;;7.37;5.67;;;5.40;96.80;;;;;;6153792;23;20509;-87
2023/01/24 04:28:07;;;;;;;7.90;5.97;;;5.60;96.60;;;;;;6164795;23;20423;-86
2023/01/24 04:30:34;;;;;;;7.47;6.10;;;5.50;96.20;;;;;;6172956;23;20442;-87
2023/01/24 04:33:00;;;;;;;6.53;5.70;;;5.40;96.10;;;;;;6172683;23;20430;-86
2023/01/24 04:35:29;;;;;;;7.23;6.50;;;5.20;96.20;;;;;;6168003;23;20426;-86
2023/01/24 04:38:01;;;;;;;7.33;6.60;;;5.20;96.50;;;;;;6150475;23;20414;-86
2023/01/24 04:40:28;;;;;;;8.43;5.83;;;5.20;96.80;;;;;;6148905;23;20482;-84
2023/01/24 04:42:58;;;;;;;7.43;5.73;;;5.30;96.60;;;;;;6152418;23;20510;-86
2023/01/24 04:45:25;;;;;;;6.73;5.40;;;5.10;96.50;;;;;;6152683;23;20418;-84
2023/01/24 04:47:56;;;;;;;6.20;5.60;;;5.30;96.70;;;;;;6169520;23;20406;-85
2023/01/24 04:50:23;;;;;;;8.33;6.57;;;5.20;96.60;;;;;;6173592;23;20438;-87
2023/01/24 04:52:50;;;;;;;8.67;6.67;;;5.40;96.90;;;;;;6175001;23;20739;-87
2023/01/24 04:55:17;;;;;;;6.33;5.73;;;5.40;96.70;;;;;;6174596;23;20415;-86
2023/01/24 04:57:44;;;;;;;7.60;6.60;;;5.20;96.60;;;;;;6174618;23;20419;-86
2023/01/24 05:00:11;;;;;;;7.43;6.30;;;5.30;96.60;;;;;;6174607;23;20824;-86
2023/01/24 05:02:38;;;;;;;6.30;5.13;;;5.30;96.70;;;;;;6156888;23;20419;-85
2023/01/24 05:05:07;;;;;;;7.50;6.07;;;5.30;96.20;;;;;;6156424;23;20515;-87
2023/01/24 05:07:33;;;;;;;7.50;6.30;;;5.40;96.30;;;;;;6155182;23;20419;-87
2023/01/24 05:10:00;;;;;;;10.70;6.10;;;5.20;96.40;;;;;;6165340;23;20438;-86
2023/01/24 05:12:27;;;;;;;6.43;5.47;;;5.20;96.70;;;;;;6177355;23;20407;-88
2023/01/24 05:14:54;;;;;;;7.33;5.40;;;5.40;96.40;;;;;;6160190;23;20396;-83
2023/01/24 05:17:21;;;;;;;7.10;5.40;;;5.50;96.30;;;;;;6151265;23;20499;-85
2023/01/24 05:19:48;;;;;;;7.87;5.83;;;5.40;96.20;;;;;;6151172;23;20485;-84
2023/01/24 05:22:17;;;;;;;7.30;5.80;;;5.40;96.30;;;;;;6150571;23;20415;-85
2023/01/24 05:24:44;;;;;;;6.17;5.57;;;5.40;96.40;;;;;;6148656;23;20407;-86
2023/01/24 05:27:11;;;;;;;5.83;5.23;;;5.40;96.20;;;;;;6151445;23;20408;-84
2023/01/24 05:29:38;;;;;;;12.03;6.07;;;5.30;96.50;;;;;;6156084;23;20435;-85
2023/01/24 05:32:05;;;;;;;6.30;4.93;;;5.50;96.70;;;;;;6152097;23;20526;-85
2023/01/24 05:34:31;;;;;;;5.80;5.07;;;5.50;96.30;;;;;;6167911;23;20421;-86
2023/01/24 05:36:58;;;;;;;7.43;6.00;;;5.40;95.80;;;;;;6176737;23;20481;-88
2023/01/24 05:39:26;;;;;;;5.30;4.70;;;5.30;95.90;;;;;;6175926;23;20419;-84
2023/01/24 05:41:52;;;;;;;7.13;5.37;;;5.30;96.30;;;;;;6171596;23;20657;-87
2023/01/24 05:44:22;;;;;;;8.40;6.37;;;5.20;96.10;;;;;;6175336;23;20411;-85
2023/01/24 05:46:49;;;;;;;9.77;6.70;;;5.10;96.40;;;;;;6155647;23;20469;-86
2023/01/24 05:49:17;;;;;;;7.10;5.97;;;5.10;96.70;;;;;;6155270;23;20435;-86
2023/01/24 05:51:44;;;;;;;8.23;6.30;;;5.00;97.00;;;;;;6155370;23;20406;-86
2023/01/24 05:54:11;;;;;;;7.90;6.20;;;5.10;97.20;;;;;;6165615;23;20407;-86
2023/01/24 05:56:41;;;;;;;6.50;5.80;;;5.20;97.40;;;;;;6170103;23;20750;-86
2023/01/24 05:59:10;;;;;;;7.13;5.67;;;5.30;96.80;;;;;;6168946;23;20427;-88
2023/01/24 06:01:37;;;;;;;5.90;5.07;;;5.30;96.50;;;;;;6162443;23;20483;-86
2023/01/24 06:04:04;;;;;;;5.83;4.80;;;5.30;96.20;;;;;;6157824;23;20574;-87
2023/01/24 06:06:32;;;;;;;4.33;3.93;;;5.20;96.00;;;;;;6139530;23;20490;-85
2023/01/24 06:08:59;;;;;;;5.10;4.30;;;5.10;96.10;;;;;;6145617;23;20469;-87
2023/01/24 06:11:31;;;;;;;7.53;4.40;;;4.90;96.20;;;;;;6156450;23;20447;-88
2023/01/24 06:13:58;;;;;;;5.57;4.90;;;4.90;96.40;;;;;;6153768;23;20926;-88
2023/01/24 06:16:26;;;;;;;6.13;5.50;;;4.80;96.70;;;;;;6130959;23;20443;-87
2023/01/24 06:18:54;;;;;;;6.53;5.20;;;4.70;97.10;;;;;;6155026;23;20434;-85
2023/01/24 06:21:33;;;;;;;7.00;4.87;;;5.00;97.30;;;;;;6167898;23;20391;-88
2023/01/24 06:24:01;;;;;;;6.43;4.60;;;5.00;97.10;;;;;;6153329;23;20886;-86
2023/01/24 06:26:29;;;;;;;5.73;5.13;;;5.10;96.80;;;;;;6150105;23;20419;-87
2023/01/24 06:28:58;;;;;;;6.27;4.87;;;5.20;96.50;;;;;;6152371;23;21328;-86
2023/01/24 06:31:34;;;;;;;5.70;5.10;;;5.30;96.20;;;;;;6152153;23;20506;-86
2023/01/24 06:34:32;;;;;;;5.90;5.33;;;5.20;96.10;;;;;;6152076;23;20914;-87
2023/01/24 06:37:20;;;;;;;5.60;4.90;;;5.10;96.10;;;;;;6147161;23;20458;-87
2023/01/24 06:39:51;;;;;;;7.40;5.37;;;4.90;96.30;;;;;;6148435;23;20431;-87
2023/01/24 06:42:20;;;;;;;8.57;5.07;;;5.00;96.70;;;;;;6147393;23;20482;-88
2023/01/24 06:44:48;;;;;;;7.23;6.53;;;5.00;96.80;;;;;;6154766;23;20415;-85
2023/01/24 06:47:18;;;;;;;6.80;6.10;;;5.10;96.90;;;;;;6158540;23;20421;-86
2023/01/24 06:49:45;;;;;;;5.47;4.97;;;5.30;96.70;;;;;;6156861;23;20435;-87
2023/01/24 06:52:13;;;;;;;5.83;5.23;;;5.30;96.30;;;;;;6154848;23;20419;-86
2023/01/24 06:54:40;;;;;;;6.03;5.43;;;5.10;96.20;;;;;;6154813;23;20841;-86
2023/01/24 06:57:09;;;;;;;5.17;4.70;;;5.20;96.20;;;;;;6154376;23;20474;-84
2023/01/24 06:59:36;;;;;;;5.47;4.47;;;5.20;96.10;;;;;;6155003;23;20439;-86
2023/01/24 07:02:03;;;;;;;5.60;4.97;;;5.10;96.10;;;;;;6157178;23;20419;-86
2023/01/24 07:04:30;;;;;;;6.03;5.43;;;4.90;96.10;;;;;;6156929;23;20411;-85
2023/01/24 07:07:00;;;;;;;7.03;5.37;;;4.70;96.50;;;;;;6160085;23;20415;-86
2023/01/24 07:09:27;;;;;;;7.50;5.77;;;4.80;96.90;;;;;;6169376;23;20418;-87
2023/01/24 07:11:57;;;;;;;5.67;4.90;;;4.90;97.00;;;;;;6170774;23;20423;-87
2023/01/24 07:14:28;;;;;;;6.30;4.87;;;4.80;97.00;;;;;;6171635;23;20966;-88
2023/01/24 07:16:55;;;;;;;6.93;5.90;;;4.70;97.10;;;;;;6173034;23;20458;-84
2023/01/24 07:19:25;;;;;;;6.27;5.67;;;4.90;97.30;;;;;;6162470;23;20421;-86
2023/01/24 07:21:56;;;;;;;5.83;5.20;;;4.90;97.10;;;;;;6160872;23;20402;-85
2023/01/24 07:24:29;;;;;;;6.33;5.60;;;4.80;97.10;;;;;;6163235;23;20410;-85
2023/01/24 07:26:57;;;;;;;5.97;5.37;;;4.90;97.30;;;;;;6172099;23;20411;-87
2023/01/24 07:29:27;;;;;;;8.20;5.50;;;4.90;97.10;;;;;;6163625;23;20500;-88
2023/01/24 07:31:54;;;;;;;12.30;5.00;;;4.80;97.00;;;;;;6160298;23;20454;-87
2023/01/24 07:34:24;;;;;;;8.07;6.00;;;5.10;97.00;;;;;;6162049;23;20414;-85
2023/01/24 07:36:53;;;;;;;7.53;6.23;;;5.00;96.70;;;;;;6164630;23;20457;-86
2023/01/24 07:39:34;;;;;;;6.70;6.00;;;5.00;96.80;;;;;;6148496;23;20429;-86
2023/01/24 07:42:02;;;;;;;6.17;5.57;;;5.30;96.40;;;;;;6169178;23;20407;-87
2023/01/24 07:44:31;;;;;;;6.70;6.00;;;5.10;96.20;;;;;;6163126;23;20824;-85
2023/01/24 07:47:01;;;;;;;5.50;5.00;;;5.20;96.30;;;;;;6163772;23;20445;-86
2023/01/24 07:49:29;;;;;;;5.10;4.53;;;5.10;96.40;;;;;;6159608;23;20435;-88
2023/01/24 07:51:56;;;;;;;6.60;5.23;;;5.20;96.20;;;;;;6154736;23;21058;-87
2023/01/24 07:54:23;;;;;;;7.23;5.60;;;5.10;96.20;;;;;;6154799;23;20421;-88
2023/01/24 07:56:51;;;;;;;6.17;5.57;;;5.30;96.20;;;;;;6154424;23;20466;-87
2023/01/24 07:59:18;;;;;;;6.97;5.83;;;5.20;96.10;;;;;;6153368;23;20434;-88
2023/01/24 08:01:59;;;;;;;8.20;6.40;;;5.30;96.30;;;;;;6172531;23;20427;-86
2023/01/24 08:04:26;;;;;;;6.80;6.10;;;5.30;96.20;;;;;;6170899;23;20406;-87
2023/01/24 08:09:41;;;;;;;7.20;6.03;;;5.30;96.50;;;;;;6155513;23;20505;-84
2023/01/24 08:12:11;;;;;;;6.40;5.53;;;5.30;96.60;;;;;;6154782;23;20450;-88
2023/01/24 08:14:38;;;;;;;6.30;5.03;;;5.40;96.40;;;;;;6160765;23;20506;-83
2023/01/24 08:17:09;;;;;;;7.10;6.23;;;5.40;96.20;;;;;;6161796;23;20446;-85
2023/01/24 08:19:37;;;;;;;5.93;5.30;;;5.30;95.60;;;;;;6160528;23;20485;-87
2023/01/24 08:22:22;;;;;;;6.17;5.57;;;5.10;95.90;;;;;;6158475;23;20415;-86
2023/01/24 08:24:49;;;;;;;5.80;5.20;;;5.10;96.40;;;;;;6133449;23;21086;-85
2023/01/24 08:27:16;;;;;;;5.80;5.20;;;5.10;96.50;;;;;;6154918;23;20423;-88
2023/01/24 08:29:43;;;;;;;6.47;5.57;;;5.00;96.50;;;;;;6160157;23;21392;-88
2023/01/24 08:32:13;;;;;;;6.07;5.40;;;5.10;96.50;;;;;;6160088;23;21124;-87
2023/01/24 08:34:43;;;;;;;6.67;5.33;;;5.30;96.40;;;;;;6161011;23;20411;-85
2023/01/24 08:37:10;;;;;;;5.43;5.00;;;5.30;96.50;;;;;;6160046;23;20451;-87
2023/01/24 08:39:42;;;;;;;6.17;5.60;;;5.20;96.20;;;;;;6160359;23;20508;-86
2023/01/24 08:42:12;;;;;;;6.43;5.77;;;5.30;96.30;;;;;;6161259;23;20399;-86
2023/01/24 08:44:39;;;;;;;7.30;6.30;;;5.30;96.00;;;;;;6157216;23;20489;-87
2023/01/24 08:47:09;;;;;;;6.30;5.70;;;5.30;96.00;;;;;;6160506;23;20421;-86
2023/01/24 08:49:36;;;;;;;6.33;5.60;;;5.40;96.20;;;;;;6157114;23;20431;-85
2023/01/24 08:52:03;;;;;;;11.07;6.40;;;5.20;96.30;;;;;;6157311;23;20426;-83
2023/01/24 08:54:35;;;;;;;5.33;4.90;;;5.30;96.40;;;;;;6157621;23;20507;-85
2023/01/24 08:57:03;;;;;;;6.10;5.37;;;5.20;96.20;;;;;;6154116;23;20517;-88
2023/01/24 08:59:33;;;;;;;6.27;5.30;;;5.40;96.10;;;;;;6152943;23;20445;-89
2023/01/24 09:02:02;;;;;;;6.23;5.63;;;5.40;96.20;;;;;;6152631;23;20415;-87
2023/01/24 09:04:30;;;;;;;5.30;4.80;;;5.30;96.20;;;;;;6154596;23;20457;-86
2023/01/24 09:06:58;;;;;;;6.50;5.63;;;5.40;96.30;;;;;;6153886;23;20410;-86
2023/01/24 09:09:26;;;;;;;5.87;5.23;;;5.60;96.10;;;;;;6154962;23;20528;-87
2023/01/24 09:11:53;;;;;;;5.27;4.17;;;5.60;95.70;;;;;;6152906;23;20746;-86
2023/01/24 09:14:29;;;;;;;5.13;4.43;;;5.50;96.00;;;;;;6153975;23;20429;-86
2023/01/24 09:16:56;;;;;;;6.70;6.00;;;5.50;95.50;;;;;;6153396;23;20450;-86
2023/01/24 09:19:26;;;;;;;6.47;5.60;;;5.40;95.60;;;;;;6152490;23;20431;-86
2023/01/24 09:21:56;;;;;;;5.03;4.53;;;5.20;95.90;;;;;;6152609;23;20463;-86
2023/01/24 09:24:24;;;;;;;6.03;5.43;;;5.30;96.30;;;;;;6151573;23;20465;-86
2023/01/24 09:26:51;;;;;;;5.70;5.10;;;5.50;96.00;;;;;;6150264;23;20584;-86
2023/01/24 09:29:20;;;;;;;6.17;5.67;;;5.40;95.80;;;;;;6151475;23;21242;-86
2023/01/24 09:31:48;;;;;;;5.40;4.90;;;5.30;96.10;;;;;;6152912;23;20433;-87
2023/01/24 09:34:16;;;;;;;6.80;5.90;;;5.20;96.50;;;;;;6151184;23;20529;-85
2023/01/24 09:36:43;;;;;;;5.53;5.03;;;5.30;96.60;;;;;;6148579;23;20418;-87
2023/01/24 09:39:10;;;;;;;5.97;5.37;;;5.30;96.70;;;;;;6151320;23;20431;-89
2023/01/24 09:41:48;;;;;;;6.37;5.73;;;5.30;96.60;;;;;;6154363;23;20423;-87
2023/01/24 09:44:44;;;;;;;6.00;5.50;;;5.50;96.60;;;;;;6159880;23;20422;-85
2023/01/24 09:47:42;;;;;;;6.23;4.90;;;5.40;96.50;;;;;;6148514;23;21008;-87
2023/01/24 09:50:19;;;;;;;6.77;5.00;;;5.50;96.00;;;;;;6140825;23;20439;-86
2023/01/24 09:52:53;;;;;;;6.20;5.63;;;5.70;96.10;;;;;;6146935;23;20418;-84
2023/01/24 09:55:39;;;;;;;6.00;5.50;;;5.50;96.00;;;;;;6147148;23;20418;-85
2023/01/24 09:58:31;;;;;;;6.97;6.27;;;5.40;96.20;;;;;;6152311;23;20514;-87
2023/01/24 10:01:06;;;;;;;7.83;6.23;;;5.80;96.10;;;;;;6151547;23;20411;-86
2023/01/24 10:03:34;;;;;;;7.20;5.53;;;5.70;96.00;;;;;;6150529;23;20415;-86
2023/01/24 10:06:18;;;;;;;9.10;6.30;;;5.90;95.50;;;;;;6151899;23;20480;-86
2023/01/24 10:09:12;;;;;;;5.17;4.67;;;5.80;95.30;;;;;;6151979;23;20778;-86
2023/01/24 10:12:23;;;;;;;5.80;5.30;;;6.00;95.30;;;;;;6152872;23;20506;-86
2023/01/24 10:15:11;;;;;;;4.23;3.83;;;5.60;95.00;;;;;;6116674;23;20986;-86
2023/01/24 10:17:55;;;;;;;5.53;4.90;;;5.70;95.40;;;;;;6162972;23;20443;-85
2023/01/24 10:20:41;;;;;;;6.97;6.27;;;5.60;95.10;;;;;;6159587;23;21005;-85
2023/01/24 10:23:30;;;;;;;5.80;5.20;;;5.50;95.40;;;;;;6154205;23;20410;-86
2023/01/24 10:26:17;;;;;;;7.13;6.30;;;5.40;95.90;;;;;;6168802;23;20394;-88
2023/01/24 10:28:51;;;;;;;6.50;5.80;;;5.40;96.10;;;;;;6155350;23;20435;-85
2023/01/24 10:31:28;;;;;;;8.13;6.70;;;5.40;96.30;;;;;;6152740;23;20441;-87
2023/01/24 10:34:06;;;;;;;20.60;7.93;;;5.60;96.40;;;;;;6150471;23;20780;-86
2023/01/24 10:36:51;;;;;;;6.30;5.70;;;5.80;96.30;;;;;;6167360;23;20411;-89
2023/01/24 10:39:18;;;;;;;7.57;6.10;;;5.70;96.20;;;;;;6156221;23;20530;-84
2023/01/24 10:41:45;;;;;;;7.80;7.00;;;5.80;96.10;;;;;;6150524;23;20394;-84
2023/01/24 10:44:28;;;;;;;7.57;6.57;;;5.80;95.90;;;;;;6154293;23;20410;-88
2023/01/24 10:47:21;;;;;;;7.63;6.73;;;5.60;95.90;;;;;;6148400;23;20725;-86
2023/01/24 10:49:59;;;;;;;9.23;6.70;;;5.50;96.20;;;;;;6154063;23;20449;-87
2023/01/24 10:52:27;;;;;;;7.77;6.40;;;5.30;96.30;;;;;;6153289;23;20410;-87
2023/01/24 10:54:55;;;;;;;7.00;6.10;;;5.80;96.60;;;;;;6152470;23;20419;-87
2023/01/24 10:57:43;;;;;;;7.90;6.43;;;5.80;96.10;;;;;;6154834;23;20443;-87
2023/01/24 11:00:14;;;;;;;9.67;7.90;;;6.00;96.00;;;;;;6154431;23;20430;-86
2023/01/24 11:02:42;;;;;;;9.23;6.40;;;5.90;95.70;;;;;;6153696;23;20489;-87
2023/01/24 11:05:13;;;;;;;8.93;6.50;;;5.80;95.90;;;;;;6153203;23;20504;-87
2023/01/24 11:07:46;;;;;;;7.20;6.50;;;5.80;96.00;;;;;;6154530;23;20493;-86
2023/01/24 11:10:17;;;;;;;7.20;6.50;;;5.70;96.10;;;;;;6155483;23;20449;-87
2023/01/24 11:12:51;;;;;;;7.00;6.20;;;5.90;95.90;;;;;;6156893;23;20428;-87
2023/01/24 11:15:33;;;;;;;11.30;8.00;;;6.00;95.70;;;;;;6157299;23;20437;-87
2023/01/24 11:18:13;;;;;;;7.33;6.63;;;6.00;95.60;;;;;;6156336;23;20438;-88
2023/01/24 11:20:42;;;;;;;6.10;5.50;;;6.20;95.50;;;;;;6155921;23;20470;-87
2023/01/24 11:23:13;;;;;;;9.20;6.67;;;6.20;95.50;;;;;;6159735;23;20409;-87
2023/01/24 11:26:04;;;;;;;7.40;5.80;;;5.90;95.30;;;;;;6167897;23;20406;-86
2023/01/24 11:28:37;;;;;;;6.90;6.10;;;5.80;95.50;;;;;;6165435;23;20439;-85
2023/01/24 11:31:14;;;;;;;6.90;5.73;;;5.70;95.70;;;;;;6162666;23;20410;-86
2023/01/24 11:34:06;;;;;;;6.47;5.87;;;5.80;95.90;;;;;;6170555;23;20395;-85
2023/01/24 11:36:59;;;;;;;9.23;6.83;;;5.80;96.20;;;;;;6153307;23;20406;-86
2023/01/24 11:40:04;;;;;;;8.07;6.87;;;5.80;95.90;;;;;;6155569;23;20438;-86
2023/01/24 11:42:43;;;;;;;7.00;6.30;;;6.20;95.50;;;;;;6159241;23;20433;-85
2023/01/24 11:45:39;;;;;;;7.17;6.47;;;6.30;95.20;;;;;;6166976;23;20497;-87
2023/01/24 11:48:18;;;;;;;7.30;5.63;;;6.00;95.10;;;;;;6156299;23;20470;-86
2023/01/24 11:50:59;;;;;;;8.67;6.47;;;6.10;95.50;;;;;;6156582;23;20402;-87
2023/01/24 11:53:56;;;;;;;7.10;6.50;;;5.90;95.40;;;;;;6158717;23;20419;-87
2023/01/24 11:56:34;;;;;;;6.80;5.70;;;6.20;95.50;;;;;;6157755;23;20399;-84
2023/01/24 11:59:18;;;;;;;6.33;5.80;;;6.30;94.90;;;;;;6162466;23;20516;-85
2023/01/24 12:02:05;;;;;;;6.20;5.60;;;5.90;94.80;;;;;;6159137;23;20406;-85
2023/01/24 12:04:51;;;;;;;6.43;5.73;;;5.70;95.20;;;;;;6159514;23;20398;-88
2023/01/24 12:07:41;;;;;;;6.43;5.83;;;5.70;95.70;;;;;;6175533;23;20535;-87
2023/01/24 12:10:34;;;;;;;8.00;6.50;;;5.90;95.60;;;;;;6174407;23;20529;-85
2023/01/24 12:13:36;;;;;;;6.20;5.53;;;5.90;95.50;;;;;;6172991;23;20427;-85
2023/01/24 12:16:35;;;;;;;6.70;6.00;;;5.80;95.50;;;;;;6174064;23;20423;-87
2023/01/24 12:19:39;;;;;;;7.13;6.43;;;5.90;95.60;;;;;;6174714;23;20442;-85
2023/01/24 12:22:18;;;;;;;7.23;6.50;;;5.80;95.50;;;;;;6161876;23;20510;-85
2023/01/24 12:24:56;;;;;;;6.77;6.07;;;6.00;95.60;;;;;;6162129;23;20791;-84
2023/01/24 12:27:28;;;;;;;6.77;6.07;;;6.00;95.30;;;;;;6160323;23;20465;-85
2023/01/24 12:30:08;;;;;;;14.37;13.03;;;6.10;95.10;;;;;;6161968;23;20466;-87
2023/01/24 12:32:46;;;;;;;9.50;6.57;;;5.90;95.10;;;;;;6167132;23;20537;-87
2023/01/24 12:35:23;;;;;;;7.03;6.33;;;5.80;95.50;;;;;;6163019;23;20438;-85
2023/01/24 12:38:15;;;;;;;9.23;5.57;;;5.80;95.30;;;;;;6159735;23;20489;-87
2023/01/24 12:40:58;;;;;;;6.00;5.40;;;6.00;95.30;;;;;;6162006;23;20418;-86
2023/01/24 12:43:44;;;;;;;7.50;6.20;;;6.00;95.10;;;;;;6161216;23;20410;-87
2023/01/24 12:46:17;;;;;;;6.73;6.03;;;6.10;95.10;;;;;;6163266;23;20893;-85
2023/01/24 12:49:00;;;;;;;5.80;5.30;;;6.10;94.80;;;;;;6177054;23;20558;-85
2023/01/24 12:51:56;;;;;;;8.10;6.23;;;6.00;94.70;;;;;;6170776;23;20415;-87
2023/01/24 12:54:34;;;;;;;7.47;6.77;;;5.90;94.80;;;;;;6162437;23;20415;-86
2023/01/24 12:57:26;;;;;;;7.90;6.97;;;5.80;95.20;;;;;;6162417;23;20462;-87
2023/01/24 12:59:53;;;;;;;6.93;6.23;;;5.60;95.60;;;;;;6182033;23;20434;-87
2023/01/24 13:02:57;;;;;;;7.20;6.47;;;5.70;95.70;;;;;;6187718;23;20421;-89
2023/01/24 13:05:47;;;;;;;8.10;7.07;;;6.00;95.40;;;;;;6181778;23;20472;-89
2023/01/24 13:08:22;;;;;;;7.20;6.50;;;5.90;95.20;;;;;;6182774;23;20477;-86
2023/01/24 13:11:15;;;;;;;6.40;5.80;;;6.00;95.30;;;;;;6183278;23;20397;-87
2023/01/24 13:14:08;;;;;;;11.20;6.60;;;6.10;94.90;;;;;;6184600;23;20418;-86
2023/01/24 13:17:02;;;;;;;8.60;7.20;;;5.90;94.80;;;;;;6168305;23;20417;-86
2023/01/24 13:20:00;;;;;;;6.80;5.93;;;6.00;95.30;;;;;;6198260;23;20442;-87
2023/01/24 13:23:04;;;;;;;7.43;5.97;;;5.70;95.50;;;;;;6199665;23;20468;-87
2023/01/24 13:25:53;;;;;;;8.80;6.70;;;6.10;95.10;;;;;;6198168;23;20508;-88
2023/01/24 13:28:38;;;;;;;7.63;6.23;;;6.00;94.80;;;;;;6183778;23;20441;-88
2023/01/24 13:31:22;;;;;;;9.10;7.07;;;5.90;95.30;;;;;;6184051;23;20472;-87
2023/01/24 13:34:02;;;;;;;6.80;6.20;;;5.70;95.30;;;;;;6186061;23;20588;-87
2023/01/24 13:36:33;;;;;;;7.83;6.60;;;5.60;95.60;;;;;;6182755;23;20426;-87
2023/01/24 13:39:06;;;;;;;9.50;7.33;;;5.90;95.60;;;;;;6184628;23;20504;-87
2023/01/24 13:41:36;;;;;;;7.27;6.57;;;6.10;95.30;;;;;;6184921;23;20417;-87
2023/01/24 13:44:06;;;;;;;6.27;5.73;;;6.10;94.90;;;;;;6179176;23;20796;-86
2023/01/24 13:46:43;;;;;;;11.33;6.80;;;5.90;95.00;;;;;;6182084;23;20465;-87
2023/01/24 13:49:28;;;;;;;8.73;7.03;;;5.80;95.30;;;;;;6184442;23;20499;-86
2023/01/24 13:51:57;;;;;;;7.13;6.47;;;5.90;95.20;;;;;;6184995;23;20421;-86
2023/01/24 13:54:43;;;;;;;7.33;6.40;;;5.80;95.10;;;;;;6184079;23;20414;-87
2023/01/24 13:57:31;;;;;;;7.47;6.67;;;5.60;95.30;;;;;;6183392;23;20418;-87
2023/01/24 14:00:08;;;;;;;5.80;5.30;;;5.70;95.60;;;;;;6197334;23;20410;-87
2023/01/24 14:02:41;;;;;;;16.43;7.43;;;5.90;95.60;;;;;;6201231;23;20405;-86
2023/01/24 14:05:31;;;;;;;7.53;6.70;;;6.10;95.30;;;;;;6199211;23;20422;-88
2023/01/24 14:08:16;;;;;;;7.20;6.50;;;6.20;95.10;;;;;;6201589;23;20457;-87
2023/01/24 14:10:53;;;;;;;8.47;6.57;;;6.20;95.00;;;;;;6202728;23;20409;-87
2023/01/24 14:14:01;;;;;;;9.70;7.87;;;6.10;95.10;;;;;;6190343;23;20423;-88
2023/01/24 14:16:39;;;;;;;8.00;6.83;;;6.10;95.00;;;;;;6190262;23;20517;-86
2023/01/24 14:19:29;;;;;;;7.23;6.50;;;6.00;95.10;;;;;;6188688;23;20449;-87